Time;durP1;ratioP1;P1;durP2;ratioP2;P2;SDS_P1;SDS_P2;PMS_P1;PMS_P2;Temp;Humidity;BMP_temperature;BMP_pressure;BME280_temperature;BME280_humidity;BME280_pressure;Samples;Min_cycle;Max_cycle;Signal;HPM_P1;HPM_P2
2020/12/21 00:00:16;;;;;;;6.18;3.35;;;8.30;99.90;;;;;;4987279;28;20060;-79
2020/12/21 00:02:44;;;;;;;6.03;3.17;;;8.30;99.90;;;;;;4991812;28;20030;-80
2020/12/21 00:05:10;;;;;;;5.18;3.25;;;8.20;99.90;;;;;;4991294;28;20374;-80
2020/12/21 00:07:35;;;;;;;6.35;3.00;;;8.20;99.90;;;;;;4991745;28;20027;-79
2020/12/21 00:10:03;;;;;;;6.03;3.70;;;8.20;99.90;;;;;;4991324;28;20023;-80
2020/12/21 00:12:29;;;;;;;;;;;8.30;99.90;;;;;;4991394;28;20041;-80
2020/12/21 00:14:54;;;;;;;5.22;3.70;;;8.30;99.90;;;;;;4990417;28;20276;-80
2020/12/21 00:17:20;;;;;;;6.03;4.15;;;8.30;99.90;;;;;;4992001;28;20361;-80
2020/12/21 00:19:46;;;;;;;7.25;3.40;;;8.30;99.90;;;;;;4990665;28;20034;-79
2020/12/21 00:22:11;;;;;;;5.72;3.50;;;8.20;99.90;;;;;;4990681;28;20026;-80
2020/12/21 00:24:37;;;;;;;5.50;3.70;;;8.20;99.90;;;;;;4990032;28;20409;-80
2020/12/21 00:27:02;;;;;;;4.70;3.22;;;8.30;99.90;;;;;;4992096;28;20102;-80
2020/12/21 00:29:28;;;;;;;4.90;2.83;;;8.30;99.90;;;;;;4990657;28;20124;-80
2020/12/21 00:31:56;;;;;;;4.32;2.90;;;8.50;99.90;;;;;;4991338;28;20034;-79
2020/12/21 00:34:22;;;;;;;4.90;2.90;;;8.60;99.90;;;;;;4989837;28;20121;-80
2020/12/21 00:36:53;;;;;;;5.22;3.42;;;8.70;99.90;;;;;;4991746;28;20110;-79
2020/12/21 00:39:20;;;;;;;4.88;3.03;;;8.60;99.90;;;;;;4990594;28;20062;-79
2020/12/21 00:41:46;;;;;;;5.65;3.25;;;8.70;99.90;;;;;;4990930;28;20026;-79
2020/12/21 00:44:12;;;;;;;4.70;3.45;;;8.60;99.90;;;;;;4989663;28;20050;-79
2020/12/21 00:46:38;;;;;;;5.35;3.70;;;8.60;99.90;;;;;;4990167;28;20068;-80
2020/12/21 00:49:05;;;;;;;7.40;4.60;;;8.60;99.90;;;;;;4990260;28;20061;-80
2020/12/21 00:51:30;;;;;;;8.60;5.32;;;8.50;99.90;;;;;;4991369;28;20022;-80
2020/12/21 00:53:56;;;;;;;6.78;4.10;;;8.50;99.90;;;;;;4990213;28;20081;-79
2020/12/21 00:56:23;;;;;;;10.73;5.25;;;8.40;99.90;;;;;;4991200;28;20030;-79
2020/12/21 00:58:50;;;;;;;8.50;5.10;;;8.40;99.90;;;;;;4991236;28;20039;-79
2020/12/21 01:01:22;;;;;;;7.05;4.90;;;8.40;99.90;;;;;;4990294;28;20795;-79
2020/12/21 01:03:48;;;;;;;8.18;4.90;;;8.30;99.90;;;;;;4989651;28;20409;-79
2020/12/21 01:06:14;;;;;;;8.32;5.05;;;8.20;99.90;;;;;;4989872;28;20031;-79
2020/12/21 01:08:40;;;;;;;8.93;5.20;;;8.30;99.90;;;;;;4989921;28;20121;-80
2020/12/21 01:11:10;;;;;;;6.82;4.60;;;8.00;99.90;;;;;;4989479;28;20023;-79
2020/12/21 01:13:38;;;;;;;7.65;5.35;;;7.90;99.90;;;;;;4989711;28;20165;-78
2020/12/21 01:16:03;;;;;;;7.88;5.32;;;7.70;99.90;;;;;;4990144;28;20027;-79
2020/12/21 01:18:29;;;;;;;7.95;5.65;;;7.60;99.90;;;;;;4990816;28;20031;-79
2020/12/21 01:20:54;;;;;;;8.07;5.40;;;7.50;99.90;;;;;;4989310;28;20034;-79
2020/12/21 01:23:20;;;;;;;10.32;6.22;;;7.40;99.90;;;;;;4989047;28;20022;-79
2020/12/21 01:25:46;;;;;;;11.30;6.45;;;7.30;99.90;;;;;;4988569;28;20493;-79
2020/12/21 01:28:12;;;;;;;8.98;6.22;;;7.20;99.90;;;;;;4989473;28;20030;-79
2020/12/21 01:30:37;;;;;;;9.13;5.75;;;7.10;99.90;;;;;;4990494;28;20474;-79
2020/12/21 01:33:03;;;;;;;8.35;6.00;;;7.20;99.90;;;;;;4989228;28;20385;-80
2020/12/21 01:35:29;;;;;;;7.82;5.38;;;7.10;99.90;;;;;;4988995;28;20045;-79
2020/12/21 01:37:54;;;;;;;8.52;5.45;;;7.20;99.90;;;;;;4989847;28;20030;-79
2020/12/21 01:40:20;;;;;;;8.60;5.70;;;7.40;99.90;;;;;;4990589;28;20111;-79
2020/12/21 01:42:45;;;;;;;10.20;5.68;;;7.40;99.90;;;;;;4990436;28;20806;-78
2020/12/21 01:45:11;;;;;;;7.78;5.35;;;7.50;99.90;;;;;;4989728;28;20022;-80
2020/12/21 01:47:37;;;;;;;8.00;5.38;;;7.60;99.90;;;;;;4989851;28;20028;-80
2020/12/21 01:50:04;;;;;;;8.45;5.88;;;7.60;99.90;;;;;;4989621;28;20391;-79
2020/12/21 01:52:31;;;;;;;8.20;5.37;;;7.70;99.90;;;;;;4990926;28;20054;-79
2020/12/21 01:54:56;;;;;;;7.60;5.13;;;7.70;99.90;;;;;;4989732;28;20027;-79
2020/12/21 01:57:22;;;;;;;8.27;5.70;;;7.80;99.90;;;;;;4989291;28;20037;-79
2020/12/21 01:59:48;;;;;;;6.90;4.90;;;7.80;99.90;;;;;;4989155;28;20393;-80
2020/12/21 02:02:13;;;;;;;7.43;5.63;;;7.80;99.90;;;;;;4988560;28;20037;-79
2020/12/21 02:04:39;;;;;;;9.93;5.88;;;7.70;99.90;;;;;;4989465;28;20038;-80
2020/12/21 02:07:06;;;;;;;9.10;5.90;;;7.80;99.90;;;;;;4988519;28;20333;-79
2020/12/21 02:09:33;;;;;;;8.18;5.45;;;7.80;99.90;;;;;;4990506;28;20050;-79
2020/12/21 02:11:58;;;;;;;8.63;5.50;;;7.90;99.90;;;;;;4991117;28;20109;-79
2020/12/21 02:14:24;;;;;;;7.20;4.97;;;7.80;99.90;;;;;;4989712;28;20121;-79
2020/12/21 02:16:50;;;;;;;7.95;5.05;;;7.80;99.90;;;;;;4990620;28;20073;-79
2020/12/21 02:19:18;;;;;;;8.25;5.35;;;7.80;99.90;;;;;;4990654;28;20117;-80
2020/12/21 02:21:44;;;;;;;8.20;4.72;;;7.90;99.90;;;;;;4991512;28;20022;-79
2020/12/21 02:24:10;;;;;;;9.95;5.93;;;7.80;99.90;;;;;;4990529;28;20113;-79
2020/12/21 02:26:36;;;;;;;8.80;5.50;;;7.70;99.90;;;;;;4988858;28;20120;-79
2020/12/21 02:29:01;;;;;;;9.20;5.75;;;7.50;99.90;;;;;;4989816;28;20030;-79
2020/12/21 02:31:27;;;;;;;8.05;5.28;;;7.20;99.90;;;;;;4988401;28;20037;-79
2020/12/21 02:33:53;;;;;;;8.30;5.70;;;7.00;99.90;;;;;;4988569;28;20113;-79
2020/12/21 02:36:19;;;;;;;9.55;6.00;;;7.00;99.90;;;;;;4987775;28;20117;-81
2020/12/21 02:38:45;;;;;;;9.50;6.85;;;6.90;99.90;;;;;;4988511;28;20030;-79
2020/12/21 02:41:15;;;;;;;8.98;6.13;;;6.40;99.90;;;;;;5003137;28;20042;-79
2020/12/21 02:43:41;;;;;;;7.88;5.78;;;6.10;99.90;;;;;;5011103;28;20488;-79
2020/12/21 02:46:08;;;;;;;8.85;5.57;;;6.20;99.90;;;;;;5010728;28;20081;-79
2020/12/21 02:48:33;;;;;;;7.82;5.18;;;6.40;99.90;;;;;;5011236;28;20063;-79
2020/12/21 02:50:59;;;;;;;9.40;5.53;;;6.30;99.90;;;;;;5009597;28;20405;-79
2020/12/21 02:53:25;;;;;;;9.40;5.88;;;6.30;99.90;;;;;;5009647;28;20704;-79
2020/12/21 02:55:51;;;;;;;9.82;5.75;;;6.00;99.90;;;;;;5010251;28;20428;-79
2020/12/21 02:58:17;;;;;;;10.32;6.57;;;6.00;99.90;;;;;;5009100;28;20476;-79
2020/12/21 03:00:43;;;;;;;10.05;6.30;;;6.10;99.90;;;;;;5010339;28;20029;-79
2020/12/21 03:03:09;;;;;;;12.63;6.70;;;5.90;99.90;;;;;;5011825;28;20033;-80
2020/12/21 03:05:34;;;;;;;11.15;6.55;;;5.90;99.90;;;;;;5011594;28;20022;-80
2020/12/21 03:08:02;;;;;;;9.23;6.28;;;5.90;99.90;;;;;;5010161;28;20026;-80
2020/12/21 03:10:28;;;;;;;;;;;5.90;99.90;;;;;;5011862;28;20033;-79
2020/12/21 03:12:54;;;;;;;9.65;6.75;;;5.80;99.90;;;;;;5011024;28;19906;-80
2020/12/21 03:15:19;;;;;;;12.63;7.07;;;5.60;99.90;;;;;;5010686;28;20034;-79
2020/12/21 03:17:45;;;;;;;12.13;6.85;;;5.50;99.90;;;;;;4996291;28;20037;-79
2020/12/21 03:20:11;;;;;;;11.48;6.60;;;5.70;99.90;;;;;;4992351;28;20054;-81
2020/12/21 03:22:36;;;;;;;9.52;6.68;;;5.50;99.90;;;;;;4990815;28;20489;-78
2020/12/21 03:25:04;;;;;;;10.55;6.47;;;5.40;99.90;;;;;;4990098;28;20068;-79
2020/12/21 03:27:29;;;;;;;13.23;6.70;;;5.50;99.90;;;;;;4990747;28;20072;-79
2020/12/21 03:29:55;;;;;;;10.63;6.70;;;5.40;99.90;;;;;;4991972;28;20172;-78
2020/12/21 03:32:21;;;;;;;8.75;6.07;;;5.50;99.90;;;;;;4992317;28;20026;-79
2020/12/21 03:34:47;;;;;;;10.30;5.95;;;5.60;99.90;;;;;;4990375;28;20424;-79
2020/12/21 03:37:13;;;;;;;9.23;6.30;;;5.80;99.90;;;;;;4990826;28;20415;-78
2020/12/21 03:39:38;;;;;;;9.48;6.20;;;5.60;99.90;;;;;;4990912;28;20026;-79
2020/12/21 03:42:04;;;;;;;10.50;6.32;;;5.90;99.90;;;;;;4990942;28;20068;-79
2020/12/21 03:44:30;;;;;;;8.57;5.38;;;5.90;99.90;;;;;;4991794;28;20029;-79
2020/12/21 03:46:55;;;;;;;8.90;5.68;;;5.90;99.90;;;;;;4989876;28;20033;-79
2020/12/21 03:49:21;;;;;;;9.32;5.40;;;5.80;99.90;;;;;;4990632;28;20133;-79
2020/12/21 03:51:47;;;;;;;9.82;6.50;;;5.60;99.90;;;;;;4991586;28;20034;-79
2020/12/21 03:54:12;;;;;;;10.15;6.20;;;5.50;99.90;;;;;;4990412;28;20054;-79
2020/12/21 03:56:41;;;;;;;10.05;6.45;;;5.70;99.90;;;;;;4990413;28;20026;-80
2020/12/21 03:59:07;;;;;;;10.25;6.10;;;5.60;99.90;;;;;;4991259;28;20109;-79
2020/12/21 04:01:33;;;;;;;8.93;6.15;;;5.50;99.90;;;;;;4991531;28;20129;-80
2020/12/21 04:03:58;;;;;;;9.68;6.60;;;5.50;99.90;;;;;;4996790;28;20037;-79
2020/12/21 04:06:24;;;;;;;9.50;6.57;;;5.40;99.90;;;;;;5004045;28;20489;-81
2020/12/21 04:08:49;;;;;;;12.52;6.70;;;5.50;99.90;;;;;;5009919;28;20022;-79
2020/12/21 04:11:15;;;;;;;9.15;5.80;;;5.30;99.90;;;;;;5009909;28;20537;-79
2020/12/21 04:13:40;;;;;;;11.40;6.50;;;5.40;99.90;;;;;;5008325;28;20034;-79
2020/12/21 04:16:06;;;;;;;9.90;6.45;;;5.40;99.90;;;;;;5008253;28;20026;-80
2020/12/21 04:18:32;;;;;;;9.40;5.95;;;5.30;99.90;;;;;;5009815;28;20034;-79
2020/12/21 04:20:57;;;;;;;9.35;6.40;;;5.30;99.90;;;;;;5008411;28;20080;-79
2020/12/21 04:23:23;;;;;;;11.63;7.00;;;5.20;99.90;;;;;;5008575;28;20616;-79
2020/12/21 04:25:49;;;;;;;10.27;6.30;;;5.20;99.90;;;;;;5008239;28;20036;-79
2020/12/21 04:28:15;;;;;;;9.63;6.72;;;5.20;99.90;;;;;;5009915;28;20033;-79
2020/12/21 04:30:41;;;;;;;9.13;6.72;;;5.20;99.90;;;;;;5008361;28;20105;-79
2020/12/21 04:33:06;;;;;;;10.32;6.85;;;5.00;99.90;;;;;;5008319;28;20076;-79
2020/12/21 04:35:32;;;;;;;11.10;6.60;;;5.00;99.90;;;;;;5008241;28;20041;-79
2020/12/21 04:37:58;;;;;;;11.23;6.95;;;5.10;99.90;;;;;;5009601;28;20025;-79
2020/12/21 04:40:23;;;;;;;12.50;6.70;;;5.00;99.90;;;;;;5008221;28;20030;-79
2020/12/21 04:42:53;;;;;;;12.45;7.78;;;5.00;99.90;;;;;;5008509;28;20026;-79
2020/12/21 04:45:20;;;;;;;13.30;8.15;;;4.90;99.90;;;;;;5007777;28;20025;-78
2020/12/21 04:47:46;;;;;;;13.73;9.13;;;4.90;99.90;;;;;;5010752;28;20018;-79
2020/12/21 04:50:17;;;;;;;12.70;9.35;;;4.90;99.90;;;;;;5012843;28;20022;-79
2020/12/21 04:52:48;;;;;;;15.70;9.38;;;5.10;99.90;;;;;;5012782;28;20535;-78
2020/12/21 04:55:22;;;;;;;12.85;8.82;;;5.10;99.90;;;;;;5011646;28;20034;-79
2020/12/21 04:57:58;;;;;;;13.85;8.85;;;5.10;99.90;;;;;;5011702;28;20030;-79
2020/12/21 05:00:25;;;;;;;11.48;8.00;;;5.20;99.90;;;;;;5011712;28;20493;-78
2020/12/21 05:02:52;;;;;;;14.38;8.25;;;5.40;99.90;;;;;;5011068;28;20033;-79
2020/12/21 05:05:38;;;;;;;11.88;7.95;;;5.70;99.90;;;;;;5011938;28;20168;-79
2020/12/21 05:08:25;;;;;;;11.23;7.55;;;5.70;99.90;;;;;;5011386;28;20076;-79
2020/12/21 05:10:59;;;;;;;13.68;7.00;;;5.80;99.90;;;;;;5010756;28;20117;-79
2020/12/21 05:13:26;;;;;;;12.15;6.85;;;6.00;99.90;;;;;;5011167;28;20917;-79
2020/12/21 05:15:53;;;;;;;11.38;7.65;;;6.10;99.90;;;;;;5012184;28;20030;-79
2020/12/21 05:18:26;;;;;;;14.50;8.20;;;5.90;99.90;;;;;;5011237;28;20033;-79
2020/12/21 05:21:11;;;;;;;9.32;6.50;;;5.50;99.90;;;;;;5011256;28;20473;-79
2020/12/21 05:23:36;;;;;;;10.60;6.85;;;5.70;99.90;;;;;;5012468;28;20091;-78
2020/12/21 05:26:10;;;;;;;11.88;7.88;;;5.80;99.90;;;;;;5010786;28;20448;-79
2020/12/21 05:28:40;;;;;;;12.52;8.45;;;5.60;99.90;;;;;;5010896;28;20033;-78
2020/12/21 05:31:08;;;;;;;15.50;9.25;;;5.50;99.90;;;;;;5012110;28;20022;-79
2020/12/21 05:33:39;;;;;;;15.07;9.63;;;5.50;99.90;;;;;;5011107;28;20062;-79
2020/12/21 05:36:17;;;;;;;16.77;9.75;;;5.50;99.90;;;;;;5011715;28;20030;-79
2020/12/21 05:38:44;;;;;;;37.72;15.20;;;5.40;99.90;;;;;;5010876;28;20052;-79
2020/12/21 05:41:19;;;;;;;23.77;14.57;;;5.30;99.90;;;;;;5012429;28;20053;-79
2020/12/21 05:43:49;;;;;;;21.30;13.07;;;5.30;99.90;;;;;;5011958;28;20022;-80
2020/12/21 05:46:20;;;;;;;25.98;17.48;;;5.50;99.90;;;;;;5010019;28;20022;-79
2020/12/21 05:48:51;;;;;;;41.90;18.77;;;5.50;99.90;;;;;;5010224;28;20025;-79
2020/12/21 05:51:30;;;;;;;22.45;13.38;;;5.50;99.90;;;;;;5010224;28;20030;-79
2020/12/21 05:54:00;;;;;;;19.45;11.80;;;5.70;99.90;;;;;;5011113;28;20668;-79
2020/12/21 05:56:31;;;;;;;16.48;10.95;;;5.80;99.90;;;;;;5011153;28;20026;-79
2020/12/21 05:58:57;;;;;;;11.98;7.75;;;5.90;99.90;;;;;;5009266;28;20496;-79
2020/12/21 06:01:24;;;;;;;12.40;7.45;;;6.00;99.90;;;;;;5010808;28;20071;-79
2020/12/21 06:03:50;;;;;;;9.98;7.47;;;6.10;99.90;;;;;;5011897;28;20034;-79
2020/12/21 06:06:20;;;;;;;11.55;7.13;;;6.10;99.90;;;;;;5010275;28;20103;-79
2020/12/21 06:08:48;;;;;;;11.77;7.80;;;6.10;99.90;;;;;;5010197;28;20026;-79
2020/12/21 06:11:22;;;;;;;13.85;10.23;;;6.10;99.90;;;;;;5011404;28;20026;-79
2020/12/21 06:13:54;;;;;;;26.13;13.90;;;6.00;99.90;;;;;;5009894;28;20401;-79
2020/12/21 06:16:20;;;;;;;27.30;13.80;;;5.70;99.90;;;;;;5007662;28;20030;-79
2020/12/21 06:19:03;;;;;;;24.00;13.65;;;5.80;99.90;;;;;;4990682;28;20452;-78
2020/12/21 06:21:30;;;;;;;14.80;9.65;;;5.50;99.90;;;;;;4990218;28;20497;-78
2020/12/21 06:23:56;;;;;;;14.02;9.48;;;5.20;99.90;;;;;;4990109;28;20081;-80
2020/12/21 06:26:37;;;;;;;14.65;10.50;;;5.00;99.90;;;;;;4989681;28;20037;-79
2020/12/21 06:29:23;;;;;;;14.27;9.25;;;5.10;99.90;;;;;;4991451;28;20022;-79
2020/12/21 06:31:53;;;;;;;18.43;11.73;;;5.30;99.90;;;;;;4990128;28;20057;-79
2020/12/21 06:34:32;;;;;;;18.08;12.55;;;5.30;99.90;;;;;;4991687;28;20103;-78
2020/12/21 06:37:01;;;;;;;18.20;10.73;;;5.20;99.90;;;;;;4990345;28;20509;-79
2020/12/21 06:39:27;;;;;;;15.00;9.95;;;5.40;99.90;;;;;;4992047;28;20034;-79
2020/12/21 06:42:04;;;;;;;20.00;10.93;;;5.60;99.90;;;;;;4990722;28;20029;-79
2020/12/21 06:44:30;;;;;;;14.07;8.80;;;5.60;99.90;;;;;;4991353;28;20030;-78
2020/12/21 06:46:57;;;;;;;16.02;7.55;;;5.60;99.90;;;;;;4992044;28;20492;-78
2020/12/21 06:49:24;;;;;;;11.80;7.90;;;5.80;99.90;;;;;;4991859;28;20041;-78
2020/12/21 06:51:50;;;;;;;13.57;7.35;;;5.90;99.90;;;;;;4991450;28;20053;-79
2020/12/21 06:54:17;;;;;;;14.32;9.15;;;6.00;99.90;;;;;;4991760;28;20209;-78
2020/12/21 06:56:46;;;;;;;16.55;9.55;;;5.80;99.90;;;;;;4991647;28;20513;-79
2020/12/21 06:59:13;;;;;;;22.50;11.43;;;5.80;99.90;;;;;;4990395;28;20101;-79
2020/12/21 07:01:40;;;;;;;21.58;11.52;;;5.80;99.90;;;;;;4989872;28;20022;-79
2020/12/21 07:04:11;;;;;;;21.30;11.25;;;5.90;99.90;;;;;;4987592;28;20030;-79
2020/12/21 07:06:38;;;;;;;19.27;10.43;;;5.80;99.90;;;;;;4988687;28;20474;-79
2020/12/21 07:09:04;;;;;;;17.08;9.75;;;5.80;99.90;;;;;;4988358;28;20377;-80
2020/12/21 07:11:31;;;;;;;19.60;10.50;;;5.80;99.90;;;;;;4987714;28;20052;-80
2020/12/21 07:13:57;;;;;;;13.88;7.70;;;5.80;99.90;;;;;;4989725;28;20057;-79
2020/12/21 07:16:23;;;;;;;12.88;7.22;;;5.90;99.90;;;;;;4988935;28;20026;-78
2020/12/21 07:18:49;;;;;;;14.00;7.82;;;6.00;99.90;;;;;;4989731;28;20041;-80
2020/12/21 07:21:16;;;;;;;12.85;7.38;;;5.80;99.90;;;;;;4988722;28;20026;-80
2020/12/21 07:23:43;;;;;;;10.48;7.28;;;6.00;99.90;;;;;;4989790;28;20481;-79
2020/12/21 07:26:09;;;;;;;14.43;7.55;;;5.90;99.90;;;;;;4989254;28;20595;-79
2020/12/21 07:28:36;;;;;;;13.57;7.05;;;5.90;99.90;;;;;;4993178;28;20478;-80
2020/12/21 07:31:14;;;;;;;17.20;8.70;;;5.80;99.90;;;;;;4992362;28;20048;-79
2020/12/21 07:33:49;;;;;;;;;;;5.40;99.90;;;;;;4994859;28;20113;-79
2020/12/21 07:36:15;;;;;;;13.60;7.95;;;5.30;99.90;;;;;;4997173;28;19929;-79
2020/12/21 07:38:41;;;;;;;13.67;6.93;;;5.50;99.90;;;;;;5007572;28;20026;-80
2020/12/21 07:41:08;;;;;;;15.52;9.07;;;5.60;99.90;;;;;;5008428;28;20038;-79
2020/12/21 07:43:40;;;;;;;12.97;7.37;;;5.30;99.90;;;;;;4992531;28;20238;-79
2020/12/21 07:46:10;;;;;;;11.85;7.93;;;5.20;99.90;;;;;;4988804;28;20069;-79
2020/12/21 07:48:36;;;;;;;19.25;10.85;;;5.40;99.90;;;;;;4990356;28;20023;-79
2020/12/21 07:51:06;;;;;;;14.35;9.02;;;5.20;99.90;;;;;;4991068;28;20054;-78
2020/12/21 07:53:38;;;;;;;16.15;8.70;;;5.20;99.90;;;;;;4990556;28;20469;-78
2020/12/21 07:56:04;;;;;;;18.90;11.00;;;5.30;99.90;;;;;;4990721;28;20026;-78
2020/12/21 07:58:34;;;;;;;19.05;11.00;;;5.30;99.90;;;;;;4989210;28;20053;-79
2020/12/21 08:01:00;;;;;;;23.95;13.48;;;5.20;99.90;;;;;;4989570;28;20031;-79
2020/12/21 08:03:28;;;;;;;58.83;34.85;;;5.20;99.90;;;;;;4988157;28;20042;-79
2020/12/21 08:06:24;;;;;;;94.45;49.10;;;5.30;99.90;;;;;;4988722;28;20019;-79
2020/12/21 08:08:50;;;;;;;76.07;42.20;;;5.30;99.90;;;;;;4971284;28;20080;-78
2020/12/21 08:11:19;;;;;;;28.40;17.77;;;5.40;99.90;;;;;;4990090;28;20447;-78
2020/12/21 08:13:49;;;;;;;30.38;18.05;;;5.60;99.90;;;;;;4988944;28;20030;-80
2020/12/21 08:16:15;;;;;;;18.45;10.57;;;5.60;99.90;;;;;;4990115;28;20037;-79
2020/12/21 08:18:45;;;;;;;13.35;8.80;;;5.80;99.90;;;;;;4989705;28;20026;-78
2020/12/21 08:21:14;;;;;;;16.77;9.10;;;5.90;99.90;;;;;;4990979;28;20023;-78
2020/12/21 08:23:40;;;;;;;13.63;8.18;;;6.00;99.90;;;;;;4993886;28;20112;-78
2020/12/21 08:26:16;;;;;;;12.60;8.20;;;5.90;99.90;;;;;;4993588;28;20015;-77
2020/12/21 08:28:42;;;;;;;15.48;7.57;;;6.10;99.90;;;;;;4992691;28;20034;-77
2020/12/21 08:31:12;;;;;;;11.52;6.85;;;6.20;99.90;;;;;;4993226;28;20511;-78
2020/12/21 08:33:40;;;;;;;12.70;7.45;;;6.20;99.90;;;;;;4992833;28;20054;-79
2020/12/21 08:36:19;;;;;;;11.50;7.13;;;6.10;99.90;;;;;;4992220;28;20057;-79
2020/12/21 08:38:45;;;;;;;16.17;8.13;;;6.10;99.90;;;;;;4993978;28;20044;-79
2020/12/21 08:41:11;;;;;;;12.05;6.85;;;5.90;99.90;;;;;;4992519;28;20476;-79
2020/12/21 08:43:38;;;;;;;12.25;7.20;;;6.00;99.90;;;;;;4994780;28;20034;-80
2020/12/21 08:46:11;;;;;;;13.23;8.98;;;6.20;99.90;;;;;;4994958;28;20884;-79
2020/12/21 08:48:42;;;;;;;32.10;21.08;;;6.20;99.90;;;;;;4993233;28;20121;-81
2020/12/21 08:51:09;;;;;;;25.17;16.73;;;6.10;99.90;;;;;;5071367;22;20061;-79
2020/12/21 08:53:35;;;;;;;20.27;13.47;;;6.20;99.90;;;;;;5023898;28;20101;-80
2020/12/21 08:56:09;;;;;;;23.80;12.93;;;6.40;99.90;;;;;;5025519;28;20100;-82
2020/12/21 08:58:35;;;;;;;16.52;12.38;;;6.50;99.90;;;;;;5032351;28;20082;-82
2020/12/21 09:01:04;;;;;;;18.83;12.25;;;6.60;99.90;;;;;;5033043;28;20022;-79
2020/12/21 09:03:29;;;;;;;17.77;12.38;;;6.60;99.90;;;;;;5016556;28;20444;-81
2020/12/21 09:05:56;;;;;;;20.23;12.20;;;6.50;99.90;;;;;;5013956;28;20473;-79
2020/12/21 09:08:22;;;;;;;22.75;13.95;;;6.60;99.90;;;;;;5011743;28;20034;-80
2020/12/21 09:10:48;;;;;;;32.97;20.92;;;6.70;99.90;;;;;;5012552;28;20053;-82
2020/12/21 09:13:14;;;;;;;39.83;26.75;;;6.70;99.90;;;;;;5013185;28;20073;-81
2020/12/21 09:15:39;;;;;;;33.58;25.13;;;6.40;99.90;;;;;;5010231;28;20034;-80
2020/12/21 09:18:05;;;;;;;30.80;23.00;;;6.40;99.90;;;;;;5011246;28;20034;-82
2020/12/21 09:20:31;;;;;;;26.02;18.20;;;6.60;99.90;;;;;;5009362;28;20044;-79
2020/12/21 09:22:56;;;;;;;27.83;16.83;;;6.70;99.90;;;;;;5009647;28;20610;-80
2020/12/21 09:25:22;;;;;;;12.93;8.65;;;6.60;99.90;;;;;;5010366;28;20065;-81
2020/12/21 09:27:48;;;;;;;15.68;9.52;;;6.70;99.90;;;;;;5009581;28;20140;-79
2020/12/21 09:30:14;;;;;;;13.88;9.82;;;6.80;99.90;;;;;;5009365;28;20029;-79
2020/12/21 09:32:40;;;;;;;13.32;8.48;;;7.00;99.90;;;;;;5008612;28;20033;-81
2020/12/21 09:35:05;;;;;;;11.32;8.50;;;7.00;99.90;;;;;;5009243;28;20026;-80
2020/12/21 09:37:31;;;;;;;15.05;9.40;;;7.30;99.90;;;;;;5010982;28;20041;-79
2020/12/21 09:39:57;;;;;;;14.52;9.50;;;7.50;99.90;;;;;;5010270;28;20030;-79
2020/12/21 09:42:22;;;;;;;14.88;8.75;;;7.70;99.90;;;;;;5010135;28;20053;-79
2020/12/21 09:44:50;;;;;;;12.35;7.47;;;7.80;99.90;;;;;;5047568;28;20014;-79
2020/12/21 09:47:16;;;;;;;;;;;7.80;99.90;;;;;;5015644;28;20033;-80
2020/12/21 09:49:41;;;;;;;10.85;7.05;;;7.90;99.90;;;;;;5011476;28;20316;-81
2020/12/21 09:52:07;;;;;;;13.60;7.57;;;7.80;99.90;;;;;;5008927;28;20030;-78
2020/12/21 09:54:33;;;;;;;13.15;8.75;;;7.60;99.90;;;;;;5009607;28;20045;-81
2020/12/21 09:56:58;;;;;;;14.20;8.45;;;7.40;99.90;;;;;;5010700;28;20029;-80
2020/12/21 09:59:24;;;;;;;13.57;7.72;;;7.30;99.90;;;;;;5013828;28;20032;-80
2020/12/21 10:01:50;;;;;;;16.10;7.78;;;7.50;99.90;;;;;;5011809;28;20469;-82
2020/12/21 10:04:15;;;;;;;12.48;6.90;;;7.50;99.90;;;;;;5010731;28;20045;-81
2020/12/21 10:06:47;;;;;;;13.13;7.20;;;7.60;99.90;;;;;;5011914;28;20032;-85
2020/12/21 10:09:13;;;;;;;17.75;8.35;;;7.60;99.90;;;;;;5010103;28;20025;-83
2020/12/21 10:11:38;;;;;;;13.05;8.45;;;7.80;99.90;;;;;;5009375;28;20025;-81
2020/12/21 10:14:04;;;;;;;13.60;5.47;;;7.90;99.90;;;;;;5014517;28;20025;-81
2020/12/21 10:16:30;;;;;;;10.80;5.70;;;7.90;99.90;;;;;;5011434;28;20022;-79
2020/12/21 10:18:55;;;;;;;12.20;6.00;;;7.90;99.90;;;;;;5011258;28;20491;-80
2020/12/21 10:21:21;;;;;;;15.55;6.70;;;8.00;99.90;;;;;;5009036;28;20508;-79
2020/12/21 10:23:47;;;;;;;8.52;5.15;;;8.00;99.90;;;;;;5012059;28;20026;-82
2020/12/21 10:26:12;;;;;;;21.88;12.20;;;8.00;99.90;;;;;;5009886;28;20513;-78
2020/12/21 10:28:38;;;;;;;11.98;7.50;;;8.00;99.90;;;;;;5009536;28;20022;-80
2020/12/21 10:31:03;;;;;;;12.93;7.20;;;8.00;99.90;;;;;;5010786;28;20034;-79
2020/12/21 10:33:29;;;;;;;8.90;6.10;;;7.90;99.90;;;;;;5009557;28;20509;-81
2020/12/21 10:35:55;;;;;;;12.57;6.13;;;8.00;99.90;;;;;;5008393;28;20054;-80
2020/12/21 10:38:20;;;;;;;8.95;5.68;;;8.10;99.90;;;;;;5009405;28;20021;-80
2020/12/21 10:40:46;;;;;;;14.68;5.72;;;8.00;99.90;;;;;;5008585;28;20045;-80
2020/12/21 10:43:11;;;;;;;9.45;6.03;;;7.90;99.90;;;;;;5008999;28;20038;-83
2020/12/21 10:45:39;;;;;;;10.13;4.80;;;7.50;99.90;;;;;;5007362;28;20021;-81
2020/12/21 10:48:05;;;;;;;9.57;5.47;;;7.70;99.90;;;;;;5008399;28;20029;-82
2020/12/21 10:50:30;;;;;;;11.18;5.60;;;7.90;99.90;;;;;;5008480;28;20087;-82
2020/12/21 10:52:56;;;;;;;7.93;5.40;;;8.10;99.90;;;;;;5006040;28;20416;-82
2020/12/21 10:55:21;;;;;;;8.75;5.80;;;8.20;99.90;;;;;;5007336;28;20030;-82
2020/12/21 10:57:47;;;;;;;9.23;5.20;;;8.00;99.90;;;;;;5009075;28;20024;-83
2020/12/21 11:00:13;;;;;;;9.02;5.55;;;8.10;99.90;;;;;;5008991;28;20495;-83
2020/12/21 11:02:38;;;;;;;9.05;5.35;;;8.10;99.90;;;;;;5009956;28;20120;-80
2020/12/21 11:05:04;;;;;;;6.80;4.57;;;8.30;99.90;;;;;;5019979;28;20018;-80
2020/12/21 11:07:33;;;;;;;9.30;5.40;;;8.40;99.90;;;;;;5010792;28;20025;-82
2020/12/21 11:09:59;;;;;;;11.40;5.57;;;8.30;99.90;;;;;;5009266;28;20053;-82
2020/12/21 11:12:24;;;;;;;8.82;5.78;;;8.10;99.90;;;;;;5009491;28;20400;-81
2020/12/21 11:14:51;;;;;;;9.38;5.80;;;7.70;99.90;;;;;;5009503;28;20376;-82
2020/12/21 11:17:17;;;;;;;10.18;6.35;;;7.60;99.90;;;;;;5008865;28;20026;-83
2020/12/21 11:19:43;;;;;;;10.00;5.90;;;7.60;99.90;;;;;;5008450;28;20026;-83
2020/12/21 11:22:09;;;;;;;9.95;5.60;;;7.60;99.90;;;;;;5009662;28;20121;-83
2020/12/21 11:24:34;;;;;;;9.85;5.75;;;8.00;99.90;;;;;;5008568;28;20140;-83
2020/12/21 11:27:00;;;;;;;9.68;5.60;;;8.10;99.90;;;;;;5009057;28;20026;-83
2020/12/21 11:29:26;;;;;;;8.88;5.45;;;8.20;99.90;;;;;;5008825;28;20021;-83
2020/12/21 11:31:52;;;;;;;9.02;4.88;;;8.30;99.90;;;;;;5007831;28;20030;-81
2020/12/21 11:34:18;;;;;;;8.30;5.53;;;8.40;99.90;;;;;;5007677;28;20092;-82
2020/12/21 11:36:44;;;;;;;8.63;5.57;;;8.50;99.90;;;;;;5008390;28;20029;-82
2020/12/21 11:39:10;;;;;;;9.00;5.22;;;8.60;99.90;;;;;;5009016;28;20045;-79
2020/12/21 11:41:36;;;;;;;11.68;6.40;;;8.60;99.90;;;;;;5006198;28;20022;-80
2020/12/21 11:44:02;;;;;;;9.57;6.47;;;8.30;99.90;;;;;;5007855;28;20045;-78
2020/12/21 11:46:37;;;;;;;9.52;6.50;;;8.10;99.90;;;;;;5006537;28;20033;-80
2020/12/21 11:49:03;;;;;;;10.10;6.50;;;8.20;99.90;;;;;;5008277;28;20030;-82
2020/12/21 11:51:29;;;;;;;14.10;7.32;;;8.20;99.90;;;;;;5007895;28;20053;-83
2020/12/21 11:53:55;;;;;;;9.23;6.70;;;8.10;99.90;;;;;;5007643;28;20073;-82
2020/12/21 11:56:21;;;;;;;11.38;7.03;;;7.80;99.90;;;;;;5008619;28;20038;-82
2020/12/21 11:58:47;;;;;;;10.55;6.97;;;7.60;99.90;;;;;;5011650;28;20034;-82
2020/12/21 12:01:16;;;;;;;13.52;7.40;;;7.50;99.90;;;;;;5033636;28;20657;-80
2020/12/21 12:03:43;;;;;;;13.68;7.85;;;7.60;99.90;;;;;;5010246;28;20030;-79
2020/12/21 12:06:08;;;;;;;14.93;8.05;;;7.70;99.90;;;;;;5009824;28;20042;-81
2020/12/21 12:08:34;;;;;;;10.30;7.40;;;7.60;99.90;;;;;;5010403;28;20030;-80
2020/12/21 12:10:59;;;;;;;11.07;7.53;;;7.70;99.90;;;;;;5009773;28;20049;-79
2020/12/21 12:13:26;;;;;;;9.18;6.82;;;7.90;99.90;;;;;;5011519;28;20110;-80
2020/12/21 12:15:52;;;;;;;9.65;6.88;;;8.20;99.90;;;;;;5009187;28;20025;-80
2020/12/21 12:18:19;;;;;;;13.95;8.05;;;8.30;99.90;;;;;;5010650;28;20041;-80
2020/12/21 12:20:45;;;;;;;10.93;7.07;;;8.40;99.90;;;;;;5007010;28;20392;-79
2020/12/21 12:23:10;;;;;;;13.35;6.38;;;8.60;99.90;;;;;;5008845;28;20030;-77
2020/12/21 12:25:36;;;;;;;9.93;6.85;;;8.90;99.90;;;;;;5008444;28;20026;-79
2020/12/21 12:28:02;;;;;;;10.70;7.05;;;9.00;99.90;;;;;;5009622;28;20062;-79
2020/12/21 12:30:27;;;;;;;10.32;6.20;;;9.00;99.90;;;;;;5010636;28;20041;-79
2020/12/21 12:32:53;;;;;;;9.25;6.28;;;9.10;99.90;;;;;;5010704;28;20079;-79
2020/12/21 12:35:19;;;;;;;12.75;6.60;;;9.30;99.90;;;;;;5008811;28;20033;-78
2020/12/21 12:37:44;;;;;;;8.70;6.05;;;9.40;99.90;;;;;;5009289;28;20025;-79
2020/12/21 12:40:10;;;;;;;9.15;6.28;;;9.50;99.90;;;;;;5010683;28;20030;-79
2020/12/21 12:42:36;;;;;;;12.30;7.45;;;9.60;99.90;;;;;;5009527;28;20525;-81
2020/12/21 12:45:02;;;;;;;10.77;6.70;;;9.60;99.90;;;;;;5008772;28;20112;-79
2020/12/21 12:47:27;;;;;;;15.40;7.57;;;9.60;99.90;;;;;;5009346;28;20037;-79
2020/12/21 12:49:53;;;;;;;12.40;7.75;;;9.50;99.90;;;;;;5010765;28;20030;-84